Terminal Aerodrome Forecast
Issued by NWS

Home | Current Version | Previous Version | Text Only | Print | Product List | Glossary On
Versions: 1 2 3 4 5 6 7 8 9 10 11 12 13 14 15 16 17 18 19
000
FTUS42 KMLB 202347
TAFISM
TAF
KISM 202347Z 2100/2124 VRB05KT P6SM VCSH FEW050 BKN120
      TEMPO 2100/2101 6SM -RA BKN050
     FM210200 VRB03KT P6SM FEW020 BKN250
     FM211400 VRB05KT P6SM SCT035 SCT250
     FM211900 19007KT P6SM VCTS SCT035CB BKN250=

USA.gov is the U.S. government's official web portal to all federal, state and local government web resources and services.